createdAt,value
2022-10-09T03:02:55.624Z,66.31
2022-10-09T03:05:22.165Z,66.25
2022-10-09T03:07:51.529Z,66.32
2022-10-09T03:10:19.190Z,66.58
2022-10-09T03:12:46.372Z,66.33
2022-10-09T03:15:13.372Z,66.61
2022-10-09T03:17:39.848Z,66.19
2022-10-09T03:20:07.273Z,66.67
2022-10-09T03:22:33.893Z,66.71
2022-10-09T03:25:00.321Z,66.63
2022-10-09T03:27:26.897Z,66.32
2022-10-09T03:29:53.331Z,66.64
2022-10-09T03:32:19.797Z,66.55
2022-10-09T03:34:46.219Z,66.53
2022-10-09T03:37:12.782Z,66.69
2022-10-09T03:39:39.209Z,66.72
2022-10-09T03:42:05.727Z,66.67
2022-10-09T03:44:32.269Z,66.57
2022-10-09T03:46:58.709Z,66.81
2022-10-09T03:49:25.186Z,66.51
2022-10-09T03:51:52.763Z,66.59
2022-10-09T03:54:19.266Z,66.77
2022-10-09T03:56:45.670Z,67.12
2022-10-09T03:59:12.199Z,66.89
2022-10-09T04:01:38.698Z,66.77
2022-10-09T04:04:05.184Z,66.85
2022-10-09T04:06:31.628Z,67.01
2022-10-09T04:08:58.035Z,66.84
2022-10-09T04:11:24.468Z,66.97
2022-10-09T04:13:50.842Z,66.94
2022-10-09T04:16:17.329Z,66.75
2022-10-09T04:18:46.227Z,66.84
2022-10-09T04:21:13.025Z,66.75
2022-10-09T04:23:39.942Z,66.87
2022-10-09T04:26:06.999Z,67.00
2022-10-09T04:28:33.675Z,67.14
2022-10-09T04:31:00.406Z,67.01
2022-10-09T04:33:27.759Z,67.45
2022-10-09T04:35:55.304Z,67.31
2022-10-09T04:38:22.953Z,67.06
2022-10-09T04:41:00.954Z,67.38
2022-10-09T04:43:27.836Z,67.33
2022-10-09T04:45:54.720Z,67.56
2022-10-09T04:48:21.519Z,67.38
2022-10-09T04:50:48.173Z,67.46
2022-10-09T04:53:15.001Z,67.45
2022-10-09T04:55:42.545Z,67.39
2022-10-09T04:58:10.646Z,67.50
2022-10-09T05:00:45.422Z,67.39
2022-10-09T05:03:12.705Z,67.61
2022-10-09T05:05:39.468Z,67.53
2022-10-09T05:08:06.373Z,67.74
2022-10-09T05:10:33.091Z,67.56
2022-10-09T05:12:59.985Z,67.67
2022-10-09T05:15:26.598Z,67.73
2022-10-09T05:17:53.032Z,68.00
2022-10-09T05:20:19.669Z,68.15
2022-10-09T05:22:46.941Z,68.11
2022-10-09T05:25:14.107Z,68.04
2022-10-09T05:27:40.534Z,68.02
2022-10-09T05:30:07.998Z,68.01
2022-10-09T05:32:34.538Z,67.95
2022-10-09T05:35:00.992Z,68.01
2022-10-09T05:37:27.469Z,67.85
2022-10-09T05:39:53.906Z,67.61
2022-10-09T05:42:20.335Z,67.40
2022-10-09T05:44:46.775Z,67.76
2022-10-09T05:47:17.886Z,67.63
2022-10-09T05:49:44.336Z,67.81
2022-10-09T05:52:10.853Z,67.50
2022-10-09T05:54:37.281Z,67.42
2022-10-09T05:57:04.880Z,67.13
2022-10-09T05:59:31.334Z,66.98
2022-10-09T06:01:58.158Z,66.84
2022-10-09T06:04:25.226Z,67.16
2022-10-09T06:06:51.935Z,66.96
2022-10-09T06:09:25.258Z,67.01
2022-10-09T06:11:53.514Z,67.29
2022-10-09T06:14:24.260Z,67.40
2022-10-09T06:16:51.385Z,67.49
2022-10-09T06:19:19.610Z,67.27
2022-10-09T06:21:47.217Z,67.14
2022-10-09T06:24:22.283Z,67.13
2022-10-09T06:26:52.276Z,67.39
2022-10-09T06:29:18.663Z,67.21
2022-10-09T06:31:45.176Z,67.38
2022-10-09T06:34:11.567Z,67.32
2022-10-09T06:36:38.067Z,67.70
2022-10-09T06:39:07.131Z,67.60
2022-10-09T06:41:34.761Z,67.21
2022-10-09T06:44:04.336Z,67.23
2022-10-09T06:46:36.489Z,67.48
2022-10-09T06:49:04.433Z,67.09
2022-10-09T06:51:31.891Z,66.88
2022-10-09T06:54:00.972Z,66.73
2022-10-09T06:56:30.344Z,66.35
2022-10-09T06:58:59.719Z,66.14
2022-10-09T07:01:30.295Z,65.13
2022-10-09T07:03:59.873Z,64.24
2022-10-09T07:06:28.630Z,63.21
2022-10-09T07:09:00.245Z,61.22
2022-10-09T07:11:28.040Z,59.02
2022-10-09T07:13:57.399Z,56.63
2022-10-09T07:16:26.959Z,55.52
2022-10-09T07:18:55.065Z,54.18
2022-10-09T07:21:21.847Z,53.21
2022-10-09T07:23:48.392Z,51.93
2022-10-09T07:26:20.810Z,51.39
2022-10-09T07:28:47.710Z,51.29
2022-10-09T07:31:14.667Z,50.52
2022-10-09T07:33:44.415Z,49.22
2022-10-09T07:36:11.360Z,49.69
2022-10-09T07:38:37.852Z,48.48
2022-10-09T07:41:07.665Z,47.75
2022-10-09T07:43:41.999Z,47.03
2022-10-09T07:46:12.467Z,46.85
2022-10-09T07:48:39.744Z,46.86
2022-10-09T07:51:15.203Z,46.48
2022-10-09T07:53:41.759Z,46.89
2022-10-09T07:56:17.030Z,45.80
2022-10-09T07:58:43.730Z,44.58
2022-10-09T08:01:10.610Z,43.81
2022-10-09T08:03:38.033Z,42.76
2022-10-09T08:06:05.118Z,43.52
2022-10-09T08:08:31.827Z,44.00
2022-10-09T08:10:58.621Z,43.37
2022-10-09T08:13:25.213Z,43.00
2022-10-09T08:15:52.082Z,43.13
2022-10-09T08:18:18.699Z,43.09
2022-10-09T08:20:45.214Z,43.30
2022-10-09T08:23:11.658Z,43.58
2022-10-09T08:25:38.531Z,43.35
2022-10-09T08:28:05.470Z,43.03
2022-10-09T08:30:32.192Z,42.05
2022-10-09T08:32:58.618Z,41.61
2022-10-09T08:35:25.199Z,41.29
2022-10-09T08:37:51.796Z,41.92
2022-10-09T08:40:28.951Z,41.45
2022-10-09T08:43:06.333Z,39.10
2022-10-09T08:45:35.139Z,38.73
2022-10-09T08:48:11.934Z,38.41
2022-10-09T08:50:43.347Z,38.13
2022-10-09T08:53:26.226Z,36.76
2022-10-09T08:55:57.839Z,37.10
2022-10-09T08:58:28.874Z,36.92
2022-10-09T09:01:02.856Z,37.00
2022-10-09T09:04:04.175Z,36.91
2022-10-09T09:06:58.443Z,35.41
2022-10-09T09:09:24.834Z,35.24
2022-10-09T09:12:07.608Z,34.27
2022-10-09T09:14:34.163Z,34.25
2022-10-09T09:17:18.745Z,35.77
2022-10-09T09:19:54.814Z,39.80
2022-10-09T09:22:23.053Z,36.00
2022-10-09T09:24:53.084Z,34.62
2022-10-09T09:27:23.111Z,35.12
2022-10-09T09:30:02.978Z,33.25
2022-10-09T09:32:31.364Z,34.42
2022-10-09T09:35:08.119Z,33.65
2022-10-09T09:37:34.776Z,32.85
2022-10-09T09:40:35.589Z,33.50
2022-10-09T09:42:48.407Z,32.52
2022-10-09T09:45:21.980Z,32.44
2022-10-09T09:47:59.882Z,32.25
2022-10-09T09:50:56.380Z,32.84
2022-10-09T09:53:39.639Z,33.76
2022-10-09T09:56:07.051Z,33.59
2022-10-09T09:58:45.172Z,34.17
2022-10-09T10:01:21.341Z,33.17
2022-10-09T10:03:50.727Z,32.48
2022-10-09T10:06:31.044Z,31.54
2022-10-09T10:09:04.522Z,31.85
2022-10-09T10:11:33.039Z,32.08
2022-10-09T10:14:08.023Z,31.67
2022-10-09T10:16:38.438Z,31.41
2022-10-09T10:19:06.484Z,30.63
2022-10-09T10:21:48.926Z,32.05
2022-10-09T10:24:21.013Z,32.72
2022-10-09T10:26:55.350Z,33.01
2022-10-09T10:29:44.595Z,32.58
2022-10-09T10:32:17.388Z,33.23
2022-10-09T10:35:22.480Z,35.25
2022-10-09T10:38:00.898Z,33.75
2022-10-09T10:40:33.117Z,34.14
2022-10-09T10:43:04.116Z,33.33
2022-10-09T10:45:49.065Z,34.60
2022-10-09T10:48:25.423Z,32.87
2022-10-09T10:51:04.422Z,33.98
2022-10-09T10:53:55.762Z,33.66
2022-10-09T10:57:11.844Z,33.10
2022-10-09T10:59:41.402Z,36.91
2022-10-09T11:02:32.510Z,36.42
2022-10-09T11:05:12.836Z,34.25
2022-10-09T11:08:00.067Z,33.27
2022-10-09T11:10:47.747Z,32.66
2022-10-09T11:13:47.738Z,31.84
2022-10-09T11:16:43.359Z,34.42
2022-10-09T11:19:48.260Z,34.61
2022-10-09T11:22:39.364Z,32.18
2022-10-09T11:25:29.759Z,31.75
2022-10-09T11:28:07.479Z,32.88
2022-10-09T11:30:44.050Z,33.95
2022-10-09T11:33:27.718Z,33.85
2022-10-09T11:36:06.927Z,32.31
2022-10-09T11:38:44.713Z,36.67
2022-10-09T11:41:12.152Z,36.80
2022-10-09T11:43:41.409Z,34.19
2022-10-09T11:46:18.256Z,30.66
2022-10-09T11:49:10.373Z,30.57
2022-10-09T11:52:01.525Z,31.37
2022-10-09T11:54:29.234Z,32.35
2022-10-09T11:57:00.992Z,31.17
2022-10-09T11:59:31.215Z,28.96
2022-10-09T12:02:00.172Z,28.71
2022-10-09T12:04:53.890Z,30.30
2022-10-09T12:07:27.056Z,32.00
2022-10-09T12:10:00.388Z,35.07
2022-10-09T12:12:27.066Z,36.18
2022-10-09T12:14:54.035Z,36.36
2022-10-09T12:17:23.307Z,37.08
2022-10-09T12:20:04.037Z,38.09
2022-10-09T12:23:07.367Z,38.57
2022-10-09T12:25:43.664Z,38.96
2022-10-09T12:28:31.299Z,38.33
2022-10-09T12:31:00.143Z,38.29
2022-10-09T12:34:16.886Z,34.26
2022-10-09T12:36:43.335Z,37.31
2022-10-09T12:39:28.600Z,35.99
2022-10-09T12:41:57.476Z,36.73
2022-10-09T12:44:30.321Z,37.05
2022-10-09T12:47:03.666Z,37.88
2022-10-09T12:49:30.694Z,34.59
2022-10-09T12:51:59.104Z,33.71
2022-10-09T12:54:28.133Z,37.22
2022-10-09T12:56:56.469Z,38.38
2022-10-09T12:59:25.506Z,40.04
2022-10-09T13:01:57.334Z,40.41
2022-10-09T13:04:30.083Z,39.95
2022-10-09T13:06:59.048Z,40.51
2022-10-09T13:09:33.105Z,39.55
2022-10-09T13:12:23.154Z,40.21
